createdAt,value
2019-05-30T00:01:54.178Z,13.70
2019-05-30T00:04:25.506Z,13.50
2019-05-30T00:06:57.053Z,13.50
2019-05-30T00:09:29.406Z,13.40
2019-05-30T00:12:00.869Z,13.40
2019-05-30T00:14:32.179Z,13.40
2019-05-30T00:17:03.292Z,13.30
2019-05-30T00:19:34.452Z,13.30
2019-05-30T00:22:05.716Z,13.30
2019-05-30T00:24:36.808Z,13.20
2019-05-30T00:27:09.085Z,13.20
2019-05-30T00:29:40.209Z,13.20
2019-05-30T00:32:11.331Z,13.10
2019-05-30T00:34:42.461Z,13.10
2019-05-30T00:37:13.650Z,13.10
2019-05-30T00:39:44.771Z,13.10
2019-05-30T00:42:15.885Z,13.10
2019-05-30T00:44:47.016Z,13.10
2019-05-30T00:47:18.126Z,13.10
2019-05-30T00:49:49.249Z,13.10
2019-05-30T00:52:20.349Z,13.10
2019-05-30T00:54:51.478Z,13.20
2019-05-30T00:57:22.588Z,13.20
2019-05-30T00:59:53.738Z,13.10
2019-05-30T01:02:24.841Z,13.20
2019-05-30T01:04:56.942Z,13.20
2019-05-30T01:07:28.121Z,13.20
2019-05-30T01:09:59.330Z,13.20
2019-05-30T01:12:30.438Z,13.20
2019-05-30T01:15:01.548Z,13.30
2019-05-30T01:17:32.657Z,13.20
2019-05-30T01:20:05.285Z,13.30
2019-05-30T01:22:36.784Z,13.30
2019-05-30T01:25:08.433Z,13.30
2019-05-30T01:27:39.583Z,13.30
2019-05-30T01:30:11.456Z,13.30
2019-05-30T01:32:42.637Z,13.30
2019-05-30T01:35:13.888Z,13.20
2019-05-30T01:37:45.009Z,13.20
2019-05-30T01:40:16.655Z,13.20
2019-05-30T01:42:47.766Z,13.20
2019-05-30T01:45:19.843Z,13.20
2019-05-30T01:47:50.956Z,13.20
2019-05-30T01:50:23.009Z,13.20
2019-05-30T01:52:54.120Z,13.20
2019-05-30T01:55:25.244Z,13.20
2019-05-30T01:57:56.402Z,13.30
2019-05-30T02:00:30.605Z,13.20
2019-05-30T02:03:02.834Z,13.20
2019-05-30T02:05:34.181Z,13.20
2019-05-30T02:08:07.278Z,13.30
2019-05-30T02:10:38.598Z,13.30
2019-05-30T02:13:09.993Z,13.30
2019-05-30T02:15:41.295Z,13.30
2019-05-30T02:18:12.407Z,13.30
2019-05-30T02:20:43.519Z,13.30
2019-05-30T02:23:14.694Z,13.40
2019-05-30T02:25:45.830Z,13.40
2019-05-30T02:28:16.995Z,13.30
2019-05-30T02:30:48.143Z,13.30
2019-05-30T02:33:19.248Z,13.30
2019-05-30T02:35:50.386Z,13.30
2019-05-30T02:38:21.548Z,13.30
2019-05-30T02:40:52.739Z,13.30
2019-05-30T02:43:23.843Z,13.30
2019-05-30T02:45:54.974Z,13.30
2019-05-30T02:48:26.150Z,13.40
2019-05-30T02:50:57.268Z,13.30
2019-05-30T02:53:28.364Z,13.30
2019-05-30T02:55:59.493Z,13.30
2019-05-30T02:58:30.593Z,13.30
2019-05-30T03:01:02.288Z,13.30
2019-05-30T03:03:34.532Z,13.30
2019-05-30T03:06:06.878Z,13.30
2019-05-30T03:08:38.546Z,13.40
2019-05-30T03:11:12.985Z,13.40
2019-05-30T03:13:42.982Z,13.50
2019-05-30T03:16:14.176Z,13.50
2019-05-30T03:18:45.370Z,13.50
2019-05-30T03:21:16.702Z,13.50
2019-05-30T03:23:47.864Z,13.50
2019-05-30T03:26:18.987Z,13.50
2019-05-30T03:28:53.367Z,13.50
2019-05-30T03:31:29.299Z,13.50
2019-05-30T03:33:56.850Z,13.50
2019-05-30T03:36:31.148Z,13.50
2019-05-30T03:39:00.848Z,13.60
2019-05-30T03:41:31.980Z,13.60
2019-05-30T03:44:04.060Z,13.60
2019-05-30T03:46:42.419Z,13.60
2019-05-30T03:49:16.673Z,13.50
2019-05-30T03:51:49.738Z,13.50
2019-05-30T03:54:21.957Z,13.50
2019-05-30T03:57:02.112Z,13.60
2019-05-30T03:59:36.302Z,13.60
2019-05-30T04:02:31.617Z,13.60
2019-05-30T04:05:09.275Z,13.60
2019-05-30T04:07:44.150Z,13.60
2019-05-30T04:10:17.075Z,13.60
2019-05-30T04:12:59.740Z,13.70
2019-05-30T04:15:33.194Z,13.70
2019-05-30T04:18:04.537Z,13.70
2019-05-30T04:20:35.758Z,13.70
2019-05-30T04:23:08.485Z,13.70
2019-05-30T04:25:39.828Z,13.70
2019-05-30T04:28:12.055Z,13.70
2019-05-30T04:30:43.358Z,13.70
2019-05-30T04:33:26.342Z,13.70
2019-05-30T04:35:47.299Z,13.80
2019-05-30T04:38:19.491Z,13.80
2019-05-30T04:40:50.923Z,13.80
2019-05-30T04:43:22.050Z,13.80
2019-05-30T04:45:53.223Z,13.90
2019-05-30T04:48:24.372Z,14.00
2019-05-30T04:50:55.474Z,13.90
2019-05-30T04:53:26.598Z,13.90
2019-05-30T04:55:57.779Z,13.90
2019-05-30T04:58:28.901Z,14.00
2019-05-30T05:01:00.159Z,14.00
2019-05-30T05:03:45.151Z,14.10
2019-05-30T05:06:04.089Z,14.20
2019-05-30T05:08:35.215Z,14.10
2019-05-30T05:11:06.401Z,14.20
2019-05-30T05:13:37.510Z,14.30
2019-05-30T05:16:23.033Z,14.30
2019-05-30T05:18:41.525Z,14.30
2019-05-30T05:21:12.870Z,14.30
2019-05-30T05:23:44.039Z,14.20
2019-05-30T05:26:15.459Z,14.20
2019-05-30T05:28:46.650Z,14.20
2019-05-30T05:31:18.465Z,14.30
2019-05-30T05:33:56.853Z,14.40
2019-05-30T05:36:23.118Z,14.40
2019-05-30T05:38:54.295Z,14.30
2019-05-30T05:41:25.427Z,14.40
2019-05-30T05:43:56.559Z,14.30
2019-05-30T05:46:28.739Z,14.30
2019-05-30T05:48:59.974Z,14.40
2019-05-30T05:51:31.111Z,14.40
2019-05-30T05:54:02.287Z,14.40
2019-05-30T05:56:33.418Z,14.40
2019-05-30T05:59:04.618Z,14.40
2019-05-30T06:01:35.806Z,14.40
2019-05-30T06:04:13.136Z,14.40
2019-05-30T06:06:39.760Z,14.50
2019-05-30T06:09:10.889Z,14.40
2019-05-30T06:11:42.039Z,14.50
2019-05-30T06:14:13.242Z,14.40
2019-05-30T06:16:44.384Z,14.40
2019-05-30T06:19:15.506Z,14.50
2019-05-30T06:21:54.008Z,14.50
2019-05-30T06:24:19.681Z,14.50
2019-05-30T06:26:50.855Z,14.50
2019-05-30T06:29:22.178Z,14.50
2019-05-30T06:31:53.474Z,14.60
2019-05-30T06:34:32.710Z,14.60
2019-05-30T06:36:57.439Z,14.60
2019-05-30T06:39:29.671Z,14.60
2019-05-30T06:42:01.726Z,14.60
2019-05-30T06:44:33.206Z,14.70
2019-05-30T06:47:04.585Z,14.70
2019-05-30T06:49:35.704Z,14.70
2019-05-30T06:52:06.839Z,14.70
2019-05-30T06:54:38.000Z,14.70
2019-05-30T06:57:09.161Z,14.80
2019-05-30T06:59:40.291Z,14.80
2019-05-30T07:02:12.347Z,14.80
2019-05-30T07:04:51.333Z,14.80
2019-05-30T07:07:16.592Z,14.90
2019-05-30T07:09:48.089Z,14.90
2019-05-30T07:12:19.220Z,14.90
2019-05-30T07:14:50.348Z,15.00
2019-05-30T07:17:21.454Z,15.00
2019-05-30T07:19:52.607Z,15.00
2019-05-30T07:22:23.727Z,15.10
2019-05-30T07:24:54.847Z,15.10
2019-05-30T07:27:26.207Z,15.10
2019-05-30T07:29:57.527Z,15.10
2019-05-30T07:32:28.665Z,15.20
2019-05-30T07:35:06.603Z,15.30
2019-05-30T07:37:32.604Z,15.30
2019-05-30T07:40:06.416Z,15.30
2019-05-30T07:42:37.692Z,15.40
2019-05-30T07:45:14.500Z,15.40
2019-05-30T07:47:45.710Z,15.40
2019-05-30T08:08:50.865Z,15.60
2019-05-30T08:11:20.802Z,15.90
2019-05-30T08:13:51.128Z,15.90
2019-05-30T08:16:20.551Z,15.90
2019-05-30T08:18:50.012Z,16.00
2019-05-30T08:21:19.812Z,15.90
2019-05-30T08:23:49.562Z,16.00
2019-05-30T08:26:19.275Z,16.00
2019-05-30T08:28:49.003Z,16.00
2019-05-30T08:31:18.492Z,16.00
2019-05-30T08:33:48.207Z,16.00
2019-05-30T08:36:17.628Z,16.10
2019-05-30T08:38:48.333Z,16.00
2019-05-30T08:41:18.158Z,16.00
2019-05-30T08:43:47.869Z,16.10
2019-05-30T08:46:17.344Z,16.10
2019-05-30T08:48:47.079Z,16.10
2019-05-30T08:51:16.551Z,16.20
2019-05-30T08:53:46.020Z,16.30
2019-05-30T08:56:15.911Z,16.50
2019-05-30T08:58:45.867Z,16.60
2019-05-30T09:01:15.591Z,16.80
2019-05-30T09:03:46.145Z,16.90
2019-05-30T09:06:16.052Z,16.80
2019-05-30T09:08:47.176Z,16.90
2019-05-30T09:11:16.688Z,16.90
2019-05-30T09:13:46.771Z,17.00
2019-05-30T09:16:16.735Z,17.00
2019-05-30T09:18:47.300Z,17.10
2019-05-30T09:21:17.075Z,17.10
2019-05-30T09:23:47.912Z,16.90
2019-05-30T09:26:17.564Z,17.00
2019-05-30T09:28:48.190Z,17.20
2019-05-30T09:31:17.737Z,17.30
2019-05-30T09:33:47.107Z,17.40
2019-05-30T09:36:16.569Z,17.50
2019-05-30T09:38:46.007Z,17.80
2019-05-30T09:41:16.120Z,17.90
2019-05-30T09:43:46.383Z,18.00
2019-05-30T09:46:16.977Z,18.00
2019-05-30T09:48:46.815Z,18.10
2019-05-30T09:51:16.534Z,18.40
2019-05-30T09:53:46.520Z,18.50
2019-05-30T09:56:16.353Z,18.50
2019-05-30T09:58:46.155Z,18.70
2019-05-30T10:01:15.965Z,18.80
2019-05-30T10:03:46.528Z,18.80
2019-05-30T10:06:28.498Z,18.70
2019-05-30T10:08:49.426Z,18.80
2019-05-30T10:11:19.502Z,19.00
2019-05-30T10:13:50.783Z,18.90
2019-05-30T10:16:20.015Z,19.00
2019-05-30T10:18:50.690Z,19.10
2019-05-30T10:21:20.595Z,19.40
2019-05-30T10:23:52.447Z,19.60
2019-05-30T10:26:21.169Z,19.60
2019-05-30T10:28:51.441Z,19.50
2019-05-30T10:31:20.931Z,19.40
2019-05-30T10:33:51.065Z,19.30
